createdAt,value
2018-01-24T00:01:48.129Z,93.20
2018-01-24T00:04:15.750Z,93.00
2018-01-24T00:06:42.345Z,93.00
2018-01-24T00:09:10.001Z,93.60
2018-01-24T00:11:37.391Z,93.40
2018-01-24T00:14:04.803Z,93.30
2018-01-24T00:16:31.548Z,93.20
2018-01-24T00:18:58.401Z,93.00
2018-01-24T00:21:25.168Z,93.00
2018-01-24T00:23:52.689Z,93.20
2018-01-24T00:26:19.457Z,93.20
2018-01-24T00:28:46.089Z,93.40
2018-01-24T00:31:12.672Z,93.80
2018-01-24T00:33:40.094Z,93.30
2018-01-24T00:36:06.947Z,93.40
2018-01-24T00:38:34.017Z,93.60
2018-01-24T00:41:01.473Z,93.10
2018-01-24T00:43:28.832Z,93.70
2018-01-24T00:45:55.908Z,93.70
2018-01-24T00:48:23.337Z,93.70
2018-01-24T00:50:50.204Z,93.70
2018-01-24T00:53:17.665Z,94.90
2018-01-24T00:55:45.228Z,94.30
2018-01-24T00:58:12.612Z,94.30
2018-01-24T01:00:39.211Z,94.30
2018-01-24T01:03:05.873Z,94.00
2018-01-24T01:05:32.601Z,94.10
2018-01-24T01:07:59.366Z,94.20
2018-01-24T01:10:26.819Z,94.80
2018-01-24T01:12:53.544Z,94.00
2018-01-24T01:15:20.852Z,93.80
2018-01-24T01:17:47.544Z,94.30
2018-01-24T01:20:14.438Z,94.10
2018-01-24T01:22:41.768Z,93.80
2018-01-24T01:25:08.428Z,93.80
2018-01-24T01:27:36.484Z,94.00
2018-01-24T01:30:03.355Z,93.30
2018-01-24T01:32:30.804Z,93.70
2018-01-24T01:34:57.443Z,93.80
2018-01-24T01:37:24.212Z,94.20
2018-01-24T01:39:51.781Z,94.60
2018-01-24T01:42:19.320Z,94.20
2018-01-24T01:44:45.988Z,95.00
2018-01-24T01:47:13.428Z,94.10
2018-01-24T01:49:40.266Z,94.10
2018-01-24T01:52:06.956Z,95.10
2018-01-24T01:54:33.916Z,95.10
2018-01-24T01:57:00.630Z,94.40
2018-01-24T01:59:28.434Z,94.20
2018-01-24T02:01:55.124Z,94.20
2018-01-24T02:04:22.092Z,94.30
2018-01-24T02:06:49.563Z,95.10
2018-01-24T02:09:17.104Z,94.20
2018-01-24T02:11:44.169Z,94.20
2018-01-24T02:14:10.881Z,94.60
2018-01-24T02:16:37.584Z,94.60
2018-01-24T02:19:04.689Z,94.70
2018-01-24T02:21:31.468Z,94.80
2018-01-24T02:23:59.200Z,95.80
2018-01-24T02:26:26.049Z,95.80
2018-01-24T02:28:52.619Z,95.10
2018-01-24T02:31:19.283Z,95.10
2018-01-24T02:33:46.224Z,94.90
2018-01-24T02:36:13.666Z,95.20
2018-01-24T02:38:53.580Z,95.20
2018-01-24T02:41:20.204Z,95.70
2018-01-24T02:43:47.193Z,96.70
2018-01-24T02:46:13.970Z,96.90
2018-01-24T02:48:42.348Z,96.10
2018-01-24T02:51:09.805Z,96.00
2018-01-24T02:53:37.172Z,95.70
2018-01-24T02:56:04.716Z,96.10
2018-01-24T02:58:31.656Z,96.10
2018-01-24T03:00:58.412Z,96.30
2018-01-24T03:03:25.874Z,96.10
2018-01-24T03:05:52.504Z,96.20
2018-01-24T03:08:19.185Z,96.10
2018-01-24T03:10:47.377Z,96.40
2018-01-24T03:13:13.964Z,96.40
2018-01-24T03:15:40.800Z,96.30
2018-01-24T03:18:07.481Z,95.80
2018-01-24T03:20:34.156Z,95.60
2018-01-24T03:23:00.754Z,95.50
2018-01-24T03:25:27.627Z,95.10
2018-01-24T03:27:55.184Z,94.20
2018-01-24T03:30:22.625Z,93.00
2018-01-24T03:32:49.361Z,93.00
2018-01-24T03:35:16.194Z,92.70
2018-01-24T03:37:42.649Z,92.90
2018-01-24T03:40:09.450Z,92.00
2018-01-24T03:42:36.865Z,91.30
2018-01-24T03:45:03.505Z,91.40
2018-01-24T03:47:30.194Z,91.00
2018-01-24T03:49:57.608Z,90.10
2018-01-24T03:52:24.360Z,90.10
2018-01-24T03:54:51.545Z,90.20
2018-01-24T03:57:19.009Z,87.50
2018-01-24T03:59:46.585Z,89.20
2018-01-24T04:02:14.012Z,87.20
2018-01-24T04:04:40.998Z,87.30
2018-01-24T04:07:07.954Z,87.80
2018-01-24T04:09:34.553Z,87.80
2018-01-24T04:12:01.300Z,87.10
2018-01-24T04:14:28.073Z,86.90
2018-01-24T04:16:55.508Z,86.70
2018-01-24T04:19:22.380Z,86.60
2018-01-24T04:21:49.889Z,86.50
2018-01-24T04:24:16.457Z,86.00
2018-01-24T04:26:43.214Z,86.30
2018-01-24T04:29:09.988Z,86.20
2018-01-24T04:31:37.395Z,85.40
2018-01-24T04:34:04.141Z,85.50
2018-01-24T04:36:30.768Z,85.60
2018-01-24T04:38:58.115Z,85.20
2018-01-24T04:41:24.937Z,85.20
2018-01-24T04:43:52.500Z,85.10
2018-01-24T04:46:19.965Z,85.20
2018-01-24T04:48:47.428Z,85.20
2018-01-24T04:51:14.992Z,85.30
2018-01-24T04:53:42.561Z,85.00
2018-01-24T04:56:10.289Z,84.90
2018-01-24T04:58:36.972Z,84.80
2018-01-24T05:01:04.353Z,83.70
2018-01-24T05:03:31.052Z,83.60
2018-01-24T05:05:58.025Z,82.50
2018-01-24T05:08:25.584Z,83.30
2018-01-24T05:10:53.069Z,83.00
2018-01-24T05:13:19.929Z,82.80
2018-01-24T05:15:46.674Z,82.80
2018-01-24T05:18:13.414Z,82.60
2018-01-24T05:20:55.396Z,82.60
2018-01-24T05:23:23.006Z,82.10
2018-01-24T05:25:49.691Z,82.00
2018-01-24T05:28:17.136Z,82.80
2018-01-24T05:30:43.905Z,82.60
2018-01-24T05:33:11.432Z,82.60
2018-01-24T05:35:38.314Z,82.60
2018-01-24T05:38:05.662Z,82.50
2018-01-24T05:40:33.821Z,81.70
2018-01-24T05:43:00.475Z,81.70
2018-01-24T05:45:27.145Z,81.80
2018-01-24T05:47:54.803Z,81.10
2018-01-24T05:50:22.267Z,81.40
2018-01-24T05:52:49.609Z,81.00
2018-01-24T05:55:16.345Z,81.10
2018-01-24T05:57:42.984Z,80.80
2018-01-24T06:00:09.843Z,80.90
2018-01-24T06:02:36.567Z,80.90
2018-01-24T06:05:03.397Z,81.10
2018-01-24T06:07:30.441Z,80.80
2018-01-24T06:09:57.222Z,80.10
2018-01-24T06:12:23.900Z,80.70
2018-01-24T06:14:51.468Z,80.30
2018-01-24T06:17:18.913Z,80.40
2018-01-24T06:19:46.369Z,80.00
2018-01-24T06:22:12.978Z,79.80
2018-01-24T06:24:39.558Z,80.40
2018-01-24T06:27:06.336Z,80.30
2018-01-24T06:29:33.780Z,80.40
2018-01-24T06:32:01.219Z,80.30
2018-01-24T06:34:27.979Z,80.20
2018-01-24T06:36:56.147Z,80.00
2018-01-24T06:39:22.859Z,80.00
2018-01-24T06:41:49.521Z,80.00
2018-01-24T06:44:16.444Z,80.00
2018-01-24T06:46:43.193Z,79.70
2018-01-24T06:49:09.961Z,80.00
2018-01-24T06:51:36.482Z,80.00
2018-01-24T06:54:03.267Z,79.60
2018-01-24T06:56:30.089Z,79.90
2018-01-24T06:58:56.945Z,79.40
2018-01-24T07:01:23.699Z,78.90
2018-01-24T07:03:50.588Z,79.50
2018-01-24T07:06:17.980Z,78.70
2018-01-24T07:08:44.657Z,78.70
2018-01-24T07:11:11.405Z,78.60
2018-01-24T07:13:51.484Z,78.70
2018-01-24T07:16:18.920Z,78.60
2018-01-24T07:18:47.081Z,78.90
2018-01-24T07:21:14.203Z,78.90
2018-01-24T07:23:41.012Z,78.10
2018-01-24T07:26:07.761Z,78.30
2018-01-24T07:28:35.227Z,77.90
2018-01-24T07:31:02.585Z,77.30
2018-01-24T07:33:29.420Z,77.20
2018-01-24T07:35:57.644Z,77.40
2018-01-24T07:38:24.574Z,77.40
2018-01-24T07:40:52.137Z,77.20
2018-01-24T07:43:19.705Z,77.40
2018-01-24T07:45:47.052Z,77.50
2018-01-24T07:48:14.508Z,76.70
2018-01-24T07:50:41.361Z,76.50
2018-01-24T07:53:08.698Z,75.80
2018-01-24T07:55:35.376Z,75.90
2018-01-24T07:58:02.913Z,75.60
2018-01-24T08:00:30.968Z,75.30
2018-01-24T08:02:57.963Z,75.20
2018-01-24T08:05:25.417Z,76.80
2018-01-24T08:07:52.025Z,76.70
2018-01-24T08:10:18.713Z,75.70
2018-01-24T08:12:46.153Z,75.30
2018-01-24T08:15:13.644Z,74.90
2018-01-24T08:17:41.060Z,74.50
2018-01-24T08:20:07.721Z,74.40
2018-01-24T08:22:34.460Z,74.70
2018-01-24T08:25:01.125Z,74.30
2018-01-24T08:27:28.716Z,74.50
2018-01-24T08:29:55.435Z,74.40
2018-01-24T08:32:23.190Z,73.00
2018-01-24T08:34:49.880Z,72.90
2018-01-24T08:37:16.553Z,74.20
2018-01-24T08:39:43.952Z,72.90
2018-01-24T08:42:11.395Z,72.10
2018-01-24T08:44:38.147Z,72.10
2018-01-24T08:47:06.656Z,70.90
2018-01-24T08:49:34.403Z,70.40
2018-01-24T08:52:01.400Z,70.50
2018-01-24T08:54:28.213Z,70.70
2018-01-24T08:56:55.537Z,71.90
2018-01-24T08:59:22.225Z,71.20
2018-01-24T09:01:49.659Z,70.70
2018-01-24T09:04:17.112Z,69.90
2018-01-24T09:06:43.653Z,69.90
2018-01-24T09:09:10.438Z,69.50
2018-01-24T09:11:38.000Z,70.60
2018-01-24T09:14:05.441Z,69.80
2018-01-24T09:16:33.529Z,69.70
2018-01-24T09:19:00.160Z,69.50
2018-01-24T09:21:27.809Z,70.00
2018-01-24T09:23:54.497Z,70.10
2018-01-24T09:26:21.801Z,70.00
2018-01-24T09:28:48.467Z,70.10
2018-01-24T09:31:16.585Z,68.80
2018-01-24T09:33:43.524Z,68.60
2018-01-24T09:36:11.081Z,68.80
2018-01-24T09:38:38.520Z,67.80
2018-01-24T09:41:05.864Z,68.10
2018-01-24T09:43:32.529Z,68.00
2018-01-24T09:45:59.162Z,68.00
2018-01-24T09:48:25.811Z,67.20
2018-01-24T09:50:54.212Z,66.60
2018-01-24T09:53:21.762Z,67.30
2018-01-24T09:55:48.409Z,67.40
2018-01-24T09:58:15.164Z,66.30
2018-01-24T10:00:41.800Z,66.30
2018-01-24T10:03:08.764Z,65.70
2018-01-24T10:05:36.084Z,65.10
2018-01-24T10:08:03.792Z,65.10
2018-01-24T10:10:31.225Z,64.50
2018-01-24T10:12:57.980Z,64.30
2018-01-24T10:15:24.748Z,65.20
2018-01-24T10:17:52.408Z,63.80
2018-01-24T10:20:20.080Z,65.00
2018-01-24T10:22:47.420Z,64.50
2018-01-24T10:25:14.024Z,64.60
2018-01-24T10:27:40.705Z,64.40
2018-01-24T10:30:08.792Z,64.20
2018-01-24T10:32:35.513Z,64.10
2018-01-24T10:35:02.281Z,64.30
2018-01-24T10:37:28.949Z,63.40
2018-01-24T10:39:56.602Z,64.30
2018-01-24T10:42:24.014Z,63.50
2018-01-24T10:44:50.675Z,63.40
2018-01-24T10:47:17.512Z,63.70
2018-01-24T10:49:44.265Z,64.00
2018-01-24T10:52:11.244Z,64.10
2018-01-24T10:54:37.908Z,63.00
2018-01-24T10:57:05.452Z,63.00
2018-01-24T10:59:32.073Z,63.00
2018-01-24T11:01:58.859Z,63.10
2018-01-24T11:04:26.305Z,62.80
2018-01-24T11:06:53.058Z,62.60
2018-01-24T11:09:20.408Z,62.60
2018-01-24T11:11:47.100Z,62.60
2018-01-24T11:14:13.814Z,61.80
2018-01-24T11:16:41.121Z,62.20
2018-01-24T11:19:07.764Z,62.20
2018-01-24T11:21:34.555Z,62.00
2018-01-24T11:24:02.112Z,62.40
2018-01-24T11:26:29.585Z,61.70
2018-01-24T11:28:57.348Z,61.10
2018-01-24T11:31:24.704Z,60.90
2018-01-24T11:33:52.283Z,60.80
2018-01-24T11:36:19.688Z,61.30
2018-01-24T11:38:46.336Z,61.20
2018-01-24T11:41:13.098Z,61.60
2018-01-24T11:43:39.736Z,60.60
2018-01-24T11:46:06.828Z,61.40
2018-01-24T11:48:34.164Z,60.50
2018-01-24T11:51:00.992Z,60.40
2018-01-24T11:53:27.684Z,60.30
2018-01-24T11:55:55.090Z,60.00
2018-01-24T11:58:21.753Z,59.90
2018-01-24T12:00:48.523Z,59.50
2018-01-24T12:03:16.300Z,60.60
2018-01-24T12:05:43.860Z,60.00
2018-01-24T12:08:11.294Z,59.70
2018-01-24T12:10:37.948Z,59.70
2018-01-24T12:13:04.586Z,59.30
2018-01-24T12:15:32.052Z,59.30
2018-01-24T12:17:59.218Z,59.20
2018-01-24T12:20:26.072Z,59.50
2018-01-24T12:22:53.497Z,59.40
2018-01-24T12:25:20.292Z,59.30
2018-01-24T12:27:47.720Z,59.30
2018-01-24T12:30:13.972Z,59.20
2018-01-24T12:32:40.619Z,58.90
2018-01-24T12:35:07.614Z,58.70
2018-01-24T12:37:33.864Z,58.70
2018-01-24T12:40:00.342Z,59.30
2018-01-24T12:42:26.600Z,59.30
2018-01-24T12:44:53.321Z,58.70
2018-01-24T12:47:20.076Z,58.30
2018-01-24T12:49:47.642Z,58.20
2018-01-24T12:52:15.025Z,58.90
2018-01-24T12:54:41.317Z,58.90
2018-01-24T12:57:07.592Z,59.10
2018-01-24T12:59:34.224Z,59.10
2018-01-24T13:02:01.200Z,59.10
2018-01-24T13:04:27.451Z,59.10
2018-01-24T13:06:54.160Z,58.50
2018-01-24T13:09:20.984Z,58.80
2018-01-24T13:11:47.258Z,58.80
2018-01-24T13:14:13.548Z,59.10
2018-01-24T13:16:40.097Z,59.00
2018-01-24T13:19:07.088Z,58.50
2018-01-24T13:21:33.428Z,59.10
2018-01-24T13:24:00.228Z,59.10
2018-01-24T13:26:27.288Z,58.70
2018-01-24T13:28:54.722Z,59.10
2018-01-24T13:31:20.973Z,59.10
2018-01-24T13:33:47.219Z,58.90
2018-01-24T13:36:14.579Z,58.90
2018-01-24T13:38:41.578Z,59.00
2018-01-24T13:41:08.584Z,59.00
2018-01-24T13:43:35.572Z,58.80
2018-01-24T13:46:02.522Z,58.90
2018-01-24T13:48:29.328Z,59.00
2018-01-24T13:50:56.898Z,59.30
2018-01-24T13:53:23.905Z,59.30
2018-01-24T13:55:50.168Z,59.10
2018-01-24T13:58:16.824Z,59.40
2018-01-24T14:00:44.498Z,60.00
2018-01-24T14:03:11.545Z,60.50
2018-01-24T14:05:39.108Z,61.00
2018-01-24T14:08:05.393Z,60.90
2018-01-24T14:10:31.657Z,61.60
2018-01-24T14:12:59.660Z,62.30
2018-01-24T14:15:26.674Z,62.80
2018-01-24T14:17:53.030Z,62.70
2018-01-24T14:20:19.348Z,63.40
2018-01-24T14:22:45.961Z,63.30
2018-01-24T14:25:12.864Z,63.90
2018-01-24T14:27:39.608Z,64.20
2018-01-24T14:30:05.889Z,64.40
2018-01-24T14:32:32.153Z,63.80
2018-01-24T14:34:58.921Z,64.70
2018-01-24T14:37:25.186Z,64.90
2018-01-24T14:39:51.854Z,65.20
2018-01-24T14:42:18.105Z,65.50
2018-01-24T14:44:44.386Z,65.60
2018-01-24T14:47:11.242Z,65.60
2018-01-24T14:49:38.640Z,66.30
2018-01-24T14:52:04.913Z,66.30
2018-01-24T14:54:31.586Z,66.60
2018-01-24T14:56:57.841Z,66.60
2018-01-24T14:59:24.564Z,66.80
2018-01-24T15:01:51.565Z,67.00
2018-01-24T15:04:18.493Z,67.00
2018-01-24T15:06:45.404Z,67.40
2018-01-24T15:09:12.405Z,67.50
2018-01-24T15:11:38.672Z,67.40
2018-01-24T15:14:05.308Z,67.70
2018-01-24T15:16:32.288Z,68.80
2018-01-24T15:18:59.289Z,68.50
2018-01-24T15:21:25.997Z,68.50
2018-01-24T15:23:52.605Z,68.70
2018-01-24T15:26:19.473Z,68.50
2018-01-24T15:28:46.915Z,69.20
2018-01-24T15:31:14.657Z,69.60
2018-01-24T15:33:40.929Z,69.50
2018-01-24T15:36:08.377Z,69.50
2018-01-24T15:38:34.636Z,69.50
2018-01-24T15:41:01.628Z,70.10
2018-01-24T15:43:27.905Z,70.20
2018-01-24T15:45:54.964Z,70.40
2018-01-24T15:48:21.785Z,70.60
2018-01-24T15:50:48.046Z,70.70
2018-01-24T15:53:14.301Z,71.40
2018-01-24T15:55:41.305Z,71.40
2018-01-24T15:58:07.561Z,71.30
2018-01-24T16:00:34.238Z,71.60
2018-01-24T16:03:00.497Z,71.80
2018-01-24T16:05:26.785Z,72.50
2018-01-24T16:07:53.745Z,72.70
2018-01-24T16:10:20.765Z,72.80
2018-01-24T16:12:47.761Z,72.20
2018-01-24T16:15:14.556Z,72.60
2018-01-24T16:17:41.217Z,73.30
2018-01-24T16:20:07.491Z,72.90
2018-01-24T16:22:33.748Z,73.30
2018-01-24T16:25:00.037Z,73.40
2018-01-24T16:27:27.838Z,73.20
2018-01-24T16:29:54.081Z,73.10
2018-01-24T16:32:20.350Z,73.50
2018-01-24T16:34:47.129Z,73.50
2018-01-24T16:37:14.168Z,73.80
2018-01-24T16:39:40.417Z,73.70
2018-01-24T16:42:07.985Z,74.30
2018-01-24T16:44:34.980Z,74.70
2018-01-24T16:47:01.881Z,74.80
2018-01-24T16:49:28.864Z,74.90
2018-01-24T16:51:55.121Z,75.00
2018-01-24T16:54:21.705Z,75.10
2018-01-24T16:56:48.691Z,74.90
2018-01-24T16:59:15.705Z,74.80
2018-01-24T17:01:42.705Z,75.80
2018-01-24T17:04:09.408Z,75.50
2018-01-24T17:06:36.850Z,75.40
2018-01-24T17:09:03.534Z,75.30
2018-01-24T17:11:29.808Z,75.30
2018-01-24T17:13:56.052Z,75.70
2018-01-24T17:16:22.649Z,75.40
2018-01-24T17:18:48.889Z,75.80
2018-01-24T17:21:15.120Z,76.20
2018-01-24T17:23:41.404Z,75.80
2018-01-24T17:26:08.036Z,75.80
2018-01-24T17:28:34.760Z,75.80
2018-01-24T17:31:01.643Z,75.90
2018-01-24T17:33:29.043Z,76.00
2018-01-24T17:35:55.304Z,76.10
2018-01-24T17:38:22.009Z,76.10
2018-01-24T17:40:49.387Z,75.90
2018-01-24T17:43:15.705Z,76.00
2018-01-24T17:45:43.188Z,76.30
2018-01-24T17:48:10.125Z,76.20
2018-01-24T17:50:37.129Z,76.30
2018-01-24T17:53:03.389Z,76.30
2018-01-24T17:55:30.184Z,76.20
2018-01-24T17:57:56.426Z,76.70
2018-01-24T18:00:23.147Z,77.10
2018-01-24T18:02:49.898Z,76.50
2018-01-24T18:05:16.644Z,76.80
2018-01-24T18:07:43.369Z,76.60
2018-01-24T18:10:10.387Z,77.00
2018-01-24T18:12:37.270Z,77.00
2018-01-24T18:15:04.276Z,77.50
2018-01-24T18:17:30.539Z,77.50
2018-01-24T18:19:57.097Z,77.30
2018-01-24T18:22:24.116Z,77.00
2018-01-24T18:24:51.098Z,77.00
2018-01-24T18:27:18.571Z,77.70
2018-01-24T18:29:47.041Z,77.40
2018-01-24T18:32:13.357Z,77.40
2018-01-24T18:34:40.101Z,77.50
2018-01-24T18:37:07.179Z,77.60
2018-01-24T18:39:34.185Z,77.90
2018-01-24T18:42:00.437Z,77.90
2018-01-24T18:44:27.002Z,78.00
2018-01-24T18:46:54.485Z,78.00
2018-01-24T18:49:21.180Z,78.00
2018-01-24T18:51:47.833Z,77.80
2018-01-24T18:54:14.821Z,77.70
2018-01-24T18:56:41.822Z,78.40
2018-01-24T18:59:08.651Z,78.40
2018-01-24T19:01:34.924Z,78.00
2018-01-24T19:04:03.732Z,78.00
2018-01-24T19:06:30.753Z,78.20
2018-01-24T19:08:57.569Z,78.20
2018-01-24T19:11:24.413Z,77.90
2018-01-24T19:13:50.721Z,78.00
2018-01-24T19:16:17.747Z,78.40
2018-01-24T19:18:44.236Z,78.40
2018-01-24T19:21:10.489Z,78.50
2018-01-24T19:23:36.848Z,78.20
2018-01-24T19:26:03.777Z,78.40
2018-01-24T19:28:30.806Z,78.20
2018-01-24T19:30:57.068Z,78.70
2018-01-24T19:33:23.321Z,78.90
2018-01-24T19:35:51.255Z,78.40
2018-01-24T19:38:18.273Z,78.30
2018-01-24T19:40:46.188Z,78.70
2018-01-24T19:43:12.450Z,78.50
2018-01-24T19:45:39.132Z,78.60
2018-01-24T19:48:06.659Z,78.80
2018-01-24T19:50:33.337Z,78.70
2018-01-24T19:53:00.362Z,78.50
2018-01-24T19:55:26.637Z,79.30
2018-01-24T19:57:53.662Z,78.70
2018-01-24T20:00:20.737Z,78.70
2018-01-24T20:02:48.579Z,78.90
2018-01-24T20:05:15.753Z,78.90
2018-01-24T20:07:43.230Z,78.80
2018-01-24T20:10:10.225Z,78.70
2018-01-24T20:12:36.473Z,78.70
2018-01-24T20:15:03.044Z,78.50
2018-01-24T20:17:30.045Z,78.50
2018-01-24T20:19:57.280Z,78.70
2018-01-24T20:22:23.571Z,79.10
2018-01-24T20:24:50.233Z,78.80
2018-01-24T20:27:17.822Z,79.10
2018-01-24T20:29:44.080Z,79.20
2018-01-24T20:32:10.337Z,79.20
2018-01-24T20:34:37.205Z,79.70
2018-01-24T20:37:03.468Z,79.50
2018-01-24T20:39:29.721Z,79.80
2018-01-24T20:41:55.982Z,79.40
2018-01-24T20:44:22.249Z,79.30
2018-01-24T20:46:49.140Z,79.50
2018-01-24T20:49:15.945Z,79.30
2018-01-24T20:51:42.609Z,79.20
2018-01-24T20:54:10.065Z,79.40
2018-01-24T20:56:37.064Z,79.40
2018-01-24T20:59:03.668Z,79.40
2018-01-24T21:01:30.309Z,79.40
2018-01-24T21:03:57.929Z,79.30
2018-01-24T21:06:24.713Z,79.20
2018-01-24T21:08:52.452Z,79.70
2018-01-24T21:11:19.436Z,79.70
2018-01-24T21:13:46.460Z,79.80
2018-01-24T21:16:14.563Z,79.90
2018-01-24T21:18:41.564Z,79.60
2018-01-24T21:21:07.928Z,79.60
2018-01-24T21:23:35.513Z,79.90
2018-01-24T21:26:03.201Z,80.10
2018-01-24T21:28:42.616Z,80.10
2018-01-24T21:31:22.379Z,79.70
2018-01-24T21:33:50.243Z,79.70
2018-01-24T21:36:37.825Z,79.60
2018-01-24T21:39:05.850Z,79.70
2018-01-24T21:41:32.107Z,79.70
2018-01-24T21:43:58.604Z,79.70
2018-01-24T21:46:26.993Z,79.20
2018-01-24T21:48:54.432Z,79.60
2018-01-24T21:51:20.684Z,79.60
2018-01-24T21:53:47.720Z,79.50
2018-01-24T21:56:14.278Z,79.30
2018-01-24T21:58:41.272Z,79.40
2018-01-24T22:01:07.936Z,79.40
2018-01-24T22:03:34.810Z,79.20
2018-01-24T22:06:01.787Z,79.00
2018-01-24T22:08:28.784Z,78.90
2018-01-24T22:10:55.040Z,78.90
2018-01-24T22:13:21.313Z,79.10
2018-01-24T22:15:47.819Z,79.10
2018-01-24T22:18:14.075Z,78.80
2018-01-24T22:20:41.452Z,78.80
2018-01-24T22:23:07.737Z,78.80
2018-01-24T22:25:34.545Z,78.80
2018-01-24T22:28:01.452Z,78.60
2018-01-24T22:30:28.452Z,79.00
2018-01-24T22:32:55.125Z,78.90
2018-01-24T22:35:22.122Z,79.00
2018-01-24T22:37:48.372Z,79.10
2018-01-24T22:40:14.873Z,78.90
2018-01-24T22:42:41.853Z,78.90
2018-01-24T22:45:09.584Z,78.90
2018-01-24T22:47:36.548Z,79.00
2018-01-24T22:50:04.313Z,79.10
2018-01-24T22:52:31.313Z,79.20
2018-01-24T22:54:57.630Z,79.20
2018-01-24T22:57:23.904Z,79.10
2018-01-24T22:59:50.698Z,79.10
2018-01-24T23:02:17.432Z,79.30
2018-01-24T23:04:44.412Z,79.30
2018-01-24T23:07:11.325Z,79.20
2018-01-24T23:09:38.329Z,80.30
2018-01-24T23:12:04.588Z,79.40
2018-01-24T23:14:31.165Z,79.30
2018-01-24T23:16:59.212Z,79.00
2018-01-24T23:19:25.478Z,79.00
2018-01-24T23:21:52.460Z,79.10
2018-01-24T23:24:19.067Z,79.00
2018-01-24T23:26:46.476Z,79.00
2018-01-24T23:29:13.596Z,79.00
2018-01-24T23:31:41.238Z,79.00
2018-01-24T23:34:07.488Z,78.90
2018-01-24T23:36:34.481Z,79.00
2018-01-24T23:39:00.962Z,79.00
2018-01-24T23:41:27.792Z,78.90
2018-01-24T23:43:54.789Z,78.90
2018-01-24T23:46:21.719Z,78.90
2018-01-24T23:48:49.194Z,78.90
2018-01-24T23:51:16.252Z,78.80
2018-01-24T23:53:42.867Z,78.80
2018-01-24T23:56:09.118Z,78.90
2018-01-24T23:58:36.484Z,78.60
